Terminal Aerodrome Forecast
Issued by NWS Twin Cities, MN

Home | Current Version | Previous Version | Graphics & Text | Print | Product List | Glossary On
Versions: 1 2 3 4 5 6 7 8 9 10 11 12 13 14 15 16 17 18 19 20 21
000
FTUS43 KMPX 282300
TAFSTC
TAF
KSTC 282337Z 2900/2924 19009KT P6SM FEW060 BKN250
     FM290200 27005KT P6SM SCT070 BKN250
     FM290600 36006KT P6SM VCSH OVC025
     FM290800 01008KT 6SM -RA BR BKN008 OVC016
     FM291200 04011KT 6SM -RA BR BKN008 OVC015
     FM291800 05010KT P6SM BKN020 OVC035=

USA.gov is the U.S. government's official web portal to all federal, state and local government web resources and services.